Time;durP1;ratioP1;P1;durP2;ratioP2;P2;SDS_P1;SDS_P2;PMS_P1;PMS_P2;Temp;Humidity;BMP_temperature;BMP_pressure;BME280_temperature;BME280_humidity;BME280_pressure;Samples;Min_cycle;Max_cycle;Signal;HPM_P1;HPM_P2
2023/06/20 00:00:10;;;;;;;7.90;7.18;;;;;;;;;;5090015;22;20042;-68
2023/06/20 00:02:36;;;;;;;7.75;7.13;;;;;;;;;;5052677;28;20033;-68
2023/06/20 00:05:03;;;;;;;7.50;6.90;;;;;;;;;;5053803;28;20068;-69
2023/06/20 00:07:28;;;;;;;10.80;7.22;;;;;;;;;;5053869;28;20078;-69
2023/06/20 00:09:55;;;;;;;6.80;6.30;;;;;;;;;;5053692;28;20033;-70
2023/06/20 00:12:20;;;;;;;7.03;6.43;;;;;;;;;;5036151;28;20484;-69
2023/06/20 00:14:45;;;;;;;7.15;6.50;;;;;;;;;;5052332;28;20041;-69
2023/06/20 00:17:11;;;;;;;8.15;6.70;;;;;;;;;;5054305;28;20040;-69
2023/06/20 00:19:36;;;;;;;6.95;6.32;;;;;;;;;;5053914;28;20037;-69
2023/06/20 00:22:05;;;;;;;7.63;6.90;;;;;;;;;;5052267;28;20427;-70
2023/06/20 00:24:32;;;;;;;7.13;6.57;;;;;;;;;;5053633;28;20481;-69
2023/06/20 00:26:58;;;;;;;7.57;6.95;;;;;;;;;;5054218;28;20083;-68
2023/06/20 00:29:23;;;;;;;8.30;6.93;;;;;;;;;;5053912;28;20037;-67
2023/06/20 00:31:49;;;;;;;7.32;6.60;;;;;;;;;;5035513;28;20037;-68
2023/06/20 00:34:15;;;;;;;7.75;7.15;;;;;;;;;;5035534;28;20040;-68
2023/06/20 00:36:41;;;;;;;7.63;7.03;;;;;;;;;;5036271;28;20534;-68
2023/06/20 00:39:07;;;;;;;7.78;7.18;;;;;;;;;;5052059;28;20485;-68
2023/06/20 00:41:32;;;;;;;7.80;7.10;;;;;;;;;;5035784;28;20059;-68
2023/06/20 00:44:01;;;;;;;9.57;7.28;;;;;;;;;;5035560;28;20132;-68
2023/06/20 00:46:26;;;;;;;7.50;6.82;;;;;;;;;;5053555;28;20509;-68
2023/06/20 00:48:52;;;;;;;7.85;7.05;;;;;;;;;;5053863;28;20059;-68
2023/06/20 00:51:19;;;;;;;8.00;7.30;;;;;;;;;;5053813;28;20473;-68
2023/06/20 00:53:45;;;;;;;7.68;7.00;;;;;;;;;;5053502;28;20060;-68
2023/06/20 00:56:11;;;;;;;7.68;7.03;;;;;;;;;;5018837;28;20119;-68
2023/06/20 00:58:36;;;;;;;7.50;6.90;;;;;;;;;;5051880;28;20099;-61
2023/06/20 01:01:02;;;;;;;7.32;6.63;;;;;;;;;;5053090;28;20167;-63
2023/06/20 01:03:29;;;;;;;7.72;7.03;;;;;;;;;;5053402;28;20048;-62
2023/06/20 01:06:04;;;;;;;6.95;6.45;;;;;;;;;;5053688;28;20029;-62
2023/06/20 01:08:29;;;;;;;7.72;7.05;;;;;;;;;;5035180;28;20040;-62
2023/06/20 01:11:02;;;;;;;8.10;6.82;;;;;;;;;;5053042;28;20041;-63
2023/06/20 01:13:48;;;;;;;7.18;6.57;;;;;;;;;;5036074;28;20556;-62
2023/06/20 01:16:16;;;;;;;7.45;6.85;;;;;;;;;;5057344;28;20420;-62
2023/06/20 01:18:45;;;;;;;7.40;6.85;;;;;;;;;;5056364;28;20040;-63
2023/06/20 01:21:17;;;;;;;7.25;6.55;;;;;;;;;;5055556;28;20126;-63
2023/06/20 01:23:46;;;;;;;6.97;6.47;;;;;;;;;;5038874;28;20484;-62
2023/06/20 01:26:17;;;;;;;6.55;6.05;;;;;;;;;;5056693;28;20037;-61
2023/06/20 01:29:01;;;;;;;6.13;5.72;;;;;;;;;;5038784;28;20041;-61
2023/06/20 01:31:32;;;;;;;5.90;5.43;;;;;;;;;;5055777;28;20044;-62
2023/06/20 01:33:59;;;;;;;6.90;6.43;;;;;;;;;;5038724;28;20025;-62
2023/06/20 01:36:28;;;;;;;7.07;6.47;;;;;;;;;;5057001;28;20099;-62
2023/06/20 01:38:56;;;;;;;6.75;6.25;;;;;;;;;;5056669;28;20116;-62
2023/06/20 01:41:23;;;;;;;7.30;6.50;;;;;;;;;;5038607;28;20390;-62
2023/06/20 01:43:49;;;;;;;7.63;6.97;;;;;;;;;;5056627;28;20076;-62
2023/06/20 01:46:15;;;;;;;8.00;7.22;;;;;;;;;;5056136;28;20040;-62
2023/06/20 01:48:41;;;;;;;8.02;7.22;;;;;;;;;;5056190;28;20029;-62
2023/06/20 01:51:06;;;;;;;7.28;6.78;;;;;;;;;;5056665;28;20460;-61
2023/06/20 01:53:33;;;;;;;8.00;7.20;;;;;;;;;;5021706;28;20033;-62
2023/06/20 01:56:01;;;;;;;9.00;6.95;;;;;;;;;;5056631;28;20045;-62
2023/06/20 01:58:27;;;;;;;7.30;6.70;;;;;;;;;;5038248;28;20033;-62
2023/06/20 02:00:54;;;;;;;7.68;7.07;;;;;;;;;;5047967;28;20053;-62
2023/06/20 02:03:20;;;;;;;6.65;6.15;;;;;;;;;;5016924;28;20107;-62
2023/06/20 02:05:46;;;;;;;6.82;6.22;;;;;;;;;;5016473;28;20462;-62
2023/06/20 02:08:12;;;;;;;7.22;6.63;;;;;;;;;;5048049;28;20037;-62
2023/06/20 02:10:38;;;;;;;8.00;7.22;;;;;;;;;;5047988;28;20085;-62
2023/06/20 02:13:04;;;;;;;7.68;6.18;;;;;;;;;;5015258;28;20026;-61
2023/06/20 02:15:30;;;;;;;7.30;6.15;;;;;;;;;;5047841;28;20041;-61
2023/06/20 02:17:56;;;;;;;7.35;6.65;;;;;;;;;;5047813;28;20092;-61
2023/06/20 02:20:22;;;;;;;7.50;6.72;;;;;;;;;;5016680;28;20049;-61
2023/06/20 02:22:50;;;;;;;7.95;7.35;;;;;;;;;;5015870;28;20505;-63
2023/06/20 02:25:20;;;;;;;7.63;7.03;;;;;;;;;;5015852;28;20030;-65
2023/06/20 02:27:47;;;;;;;7.53;6.85;;;;;;;;;;5015846;28;20042;-65
2023/06/20 02:30:14;;;;;;;7.95;7.30;;;;;;;;;;5015804;28;20108;-63
2023/06/20 02:32:41;;;;;;;7.30;6.70;;;;;;;;;;5016190;28;20061;-63
2023/06/20 02:35:08;;;;;;;7.05;6.35;;;;;;;;;;5014473;28;20030;-62
2023/06/20 02:37:34;;;;;;;7.35;6.68;;;;;;;;;;5015454;28;20046;-62
2023/06/20 02:40:04;;;;;;;7.82;7.13;;;;;;;;;;4998971;28;20065;-61
2023/06/20 02:42:31;;;;;;;7.60;6.90;;;;;;;;;;5014702;28;20048;-62
2023/06/20 02:44:56;;;;;;;7.93;7.32;;;;;;;;;;5047409;28;20030;-62
2023/06/20 02:47:41;;;;;;;8.43;7.63;;;;;;;;;;5014254;28;20065;-62
2023/06/20 02:50:22;;;;;;;6.63;6.13;;;;;;;;;;5015534;28;20034;-61
2023/06/20 02:52:49;;;;;;;7.82;7.03;;;;;;;;;;5047330;28;20034;-62
2023/06/20 02:55:37;;;;;;;7.40;6.72;;;;;;;;;;5047121;28;20034;-62
2023/06/20 02:58:07;;;;;;;6.85;6.22;;;;;;;;;;5014111;28;20049;-62
2023/06/20 03:00:34;;;;;;;7.88;7.28;;;;;;;;;;5025761;28;20070;-63
2023/06/20 03:03:13;;;;;;;8.27;7.60;;;;;;;;;;5054278;28;20040;-62
2023/06/20 03:05:42;;;;;;;7.88;7.28;;;;;;;;;;5054858;28;20037;-68
2023/06/20 03:08:08;;;;;;;8.25;7.55;;;;;;;;;;5054781;28;20481;-68
2023/06/20 03:10:34;;;;;;;7.82;7.13;;;;;;;;;;5036783;28;20045;-68
2023/06/20 03:13:01;;;;;;;7.97;7.30;;;;;;;;;;5036787;28;20056;-69
2023/06/20 03:15:27;;;;;;;7.43;6.82;;;;;;;;;;5053414;28;20040;-67
2023/06/20 03:17:55;;;;;;;8.35;7.68;;;;;;;;;;5036744;28;20045;-67
2023/06/20 03:20:21;;;;;;;8.75;7.78;;;;;;;;;;5054665;28;20139;-69
2023/06/20 03:22:46;;;;;;;8.40;7.72;;;;;;;;;;5020187;28;20033;-68
2023/06/20 03:25:13;;;;;;;8.77;8.10;;;;;;;;;;5053395;28;20050;-69
2023/06/20 03:27:39;;;;;;;7.63;7.03;;;;;;;;;;5036500;28;20029;-68
2023/06/20 03:30:05;;;;;;;8.85;8.05;;;;;;;;;;5053208;28;20047;-62
2023/06/20 03:32:34;;;;;;;8.40;7.70;;;;;;;;;;5036810;28;20033;-62
2023/06/20 03:34:59;;;;;;;8.38;7.63;;;;;;;;;;5053028;28;20044;-62
2023/06/20 03:37:24;;;;;;;8.70;7.90;;;;;;;;;;5054081;28;20530;-62
2023/06/20 03:39:51;;;;;;;8.45;7.75;;;;;;;;;;5020139;28;20044;-62
2023/06/20 03:42:17;;;;;;;9.60;7.95;;;;;;;;;;5053182;28;20037;-63
2023/06/20 03:44:42;;;;;;;8.85;8.05;;;;;;;;;;5052818;28;20051;-64
2023/06/20 03:47:08;;;;;;;7.72;7.03;;;;;;;;;;5052495;28;20036;-63
2023/06/20 03:49:33;;;;;;;7.80;7.20;;;;;;;;;;5052870;28;20098;-63
2023/06/20 03:51:58;;;;;;;7.70;7.10;;;;;;;;;;5054363;28;20113;-62
2023/06/20 03:54:24;;;;;;;7.93;7.32;;;;;;;;;;5053492;28;20044;-62
2023/06/20 03:56:49;;;;;;;8.32;7.43;;;;;;;;;;5053908;28;20399;-62
2023/06/20 03:59:15;;;;;;;8.45;7.65;;;;;;;;;;5052863;28;20032;-62
2023/06/20 04:01:41;;;;;;;7.85;7.25;;;;;;;;;;5035650;28;20040;-62
2023/06/20 04:04:07;;;;;;;7.82;7.22;;;;;;;;;;5052569;28;20043;-62
2023/06/20 04:06:32;;;;;;;8.75;7.45;;;;;;;;;;5052516;28;20135;-62
2023/06/20 04:08:58;;;;;;;7.82;7.15;;;;;;;;;;5036295;28;20120;-62
2023/06/20 04:11:23;;;;;;;8.43;7.72;;;;;;;;;;5053664;28;20053;-62
2023/06/20 04:13:49;;;;;;;8.18;7.63;;;;;;;;;;5053822;28;20084;-63
2023/06/20 04:16:14;;;;;;;8.25;7.55;;;;;;;;;;5035450;28;20138;-70
2023/06/20 04:18:40;;;;;;;8.02;7.22;;;;;;;;;;5051815;28;20032;-67
2023/06/20 04:21:06;;;;;;;8.10;7.40;;;;;;;;;;5054138;28;20041;-62
2023/06/20 04:23:31;;;;;;;8.30;7.00;;;;;;;;;;5053713;28;20079;-62
2023/06/20 04:25:56;;;;;;;7.78;6.22;;;;;;;;;;5035506;28;20040;-61
2023/06/20 04:28:22;;;;;;;6.70;6.10;;;;;;;;;;5052153;28;20507;-62
2023/06/20 04:30:55;;;;;;;6.80;6.20;;;;;;;;;;5019509;28;20040;-62
2023/06/20 04:33:20;;;;;;;7.07;6.55;;;;;;;;;;5053437;28;20033;-62
2023/06/20 04:35:46;;;;;;;7.53;6.93;;;;;;;;;;5035714;28;20032;-62
2023/06/20 04:38:14;;;;;;;7.65;7.05;;;;;;;;;;5051713;28;20086;-62
2023/06/20 04:40:39;;;;;;;6.70;6.22;;;;;;;;;;5035500;28;20040;-62
2023/06/20 04:43:04;;;;;;;7.22;6.63;;;;;;;;;;5035353;28;20044;-62
2023/06/20 04:45:30;;;;;;;7.93;7.28;;;;;;;;;;5035412;28;20472;-62
2023/06/20 04:47:56;;;;;;;7.25;6.65;;;;;;;;;;5018928;28;20041;-63
2023/06/20 04:50:22;;;;;;;8.30;7.60;;;;;;;;;;5022771;28;20041;-63
2023/06/20 04:52:47;;;;;;;8.93;7.80;;;;;;;;;;5039514;28;20037;-63
2023/06/20 04:55:13;;;;;;;9.13;8.30;;;;;;;;;;5039385;28;20040;-62
2023/06/20 04:57:40;;;;;;;8.70;7.80;;;;;;;;;;5057589;28;20108;-62
2023/06/20 05:00:12;;;;;;;8.52;7.80;;;;;;;;;;5039175;28;20033;-62
2023/06/20 05:02:42;;;;;;;9.25;8.48;;;;;;;;;;5039720;28;20025;-62
2023/06/20 05:05:08;;;;;;;8.15;7.32;;;;;;;;;;5039431;28;20127;-62
2023/06/20 05:07:34;;;;;;;8.13;7.35;;;;;;;;;;5054652;28;20033;-62
2023/06/20 05:09:59;;;;;;;8.48;7.63;;;;;;;;;;5039208;28;20039;-62
2023/06/20 05:12:24;;;;;;;7.70;7.15;;;;;;;;;;5056574;28;20041;-62
2023/06/20 05:14:50;;;;;;;7.22;6.63;;;;;;;;;;5056041;28;20025;-62
2023/06/20 05:17:15;;;;;;;8.30;7.60;;;;;;;;;;5036948;28;20112;-61
2023/06/20 05:19:41;;;;;;;7.82;7.03;;;;;;;;;;5055019;28;20033;-61
2023/06/20 05:22:06;;;;;;;7.85;7.15;;;;;;;;;;5055656;28;20365;-62
2023/06/20 05:24:31;;;;;;;7.15;6.45;;;;;;;;;;5055456;28;20036;-62
2023/06/20 05:26:57;;;;;;;7.45;6.85;;;;;;;;;;5055849;28;20029;-62
2023/06/20 05:29:22;;;;;;;7.30;6.55;;;;;;;;;;5055347;28;20047;-61
2023/06/20 05:31:47;;;;;;;7.30;6.72;;;;;;;;;;5054944;28;20112;-62
2023/06/20 05:34:13;;;;;;;8.00;7.15;;;;;;;;;;5055205;28;20033;-62
2023/06/20 05:36:38;;;;;;;6.68;6.07;;;;;;;;;;5056022;28;20404;-62
2023/06/20 05:39:04;;;;;;;6.50;5.95;;;;;;;;;;5055814;28;20033;-62
2023/06/20 05:41:29;;;;;;;7.18;6.57;;;;;;;;;;5038257;28;20471;-62
2023/06/20 05:43:54;;;;;;;7.85;7.15;;;;;;;;;;5056234;28;20047;-62
2023/06/20 05:46:20;;;;;;;7.53;6.75;;;;;;;;;;5056425;28;20048;-62
2023/06/20 05:48:48;;;;;;;8.20;7.57;;;;;;;;;;5054509;28;20048;-62
2023/06/20 05:51:13;;;;;;;9.98;7.43;;;;;;;;;;5055275;28;20048;-61
2023/06/20 05:53:41;;;;;;;7.45;6.82;;;;;;;;;;5037538;28;20044;-62
2023/06/20 05:56:10;;;;;;;7.57;6.88;;;;;;;;;;5055490;28;20397;-62
2023/06/20 05:58:36;;;;;;;7.80;6.97;;;;;;;;;;5037055;28;20064;-62
2023/06/20 06:01:01;;;;;;;7.38;6.78;;;;;;;;;;5054348;28;20519;-62
2023/06/20 06:03:27;;;;;;;7.50;6.38;;;;;;;;;;5055629;28;20128;-62
2023/06/20 06:05:52;;;;;;;9.43;6.70;;;;;;;;;;5037998;28;20037;-62
2023/06/20 06:08:18;;;;;;;7.93;7.15;;;;;;;;;;5053982;28;20064;-62
2023/06/20 06:10:43;;;;;;;9.43;6.80;;;;;;;;;;5036440;28;20162;-61
2023/06/20 06:13:09;;;;;;;8.27;7.47;;;;;;;;;;5054396;28;20056;-61
2023/06/20 06:15:35;;;;;;;9.68;6.95;;;;;;;;;;5054367;28;20091;-61
2023/06/20 06:18:03;;;;;;;7.18;6.45;;;;;;;;;;5036478;28;20501;-61
2023/06/20 06:20:29;;;;;;;6.57;5.97;;;;;;;;;;5054677;28;20064;-61
2023/06/20 06:22:54;;;;;;;7.13;6.40;;;;;;;;;;5037079;28;20073;-61
2023/06/20 06:25:20;;;;;;;7.45;6.75;;;;;;;;;;5055586;28;20040;-61
2023/06/20 06:27:45;;;;;;;7.07;6.47;;;;;;;;;;5037756;28;20461;-61
2023/06/20 06:30:10;;;;;;;7.65;6.90;;;;;;;;;;5055523;28;20037;-61
2023/06/20 06:32:36;;;;;;;6.80;6.28;;;;;;;;;;5037738;28;20041;-61
2023/06/20 06:35:03;;;;;;;7.30;6.55;;;;;;;;;;5037591;28;20036;-61
2023/06/20 06:37:29;;;;;;;7.22;6.05;;;;;;;;;;5037566;28;20128;-61
2023/06/20 06:39:56;;;;;;;5.70;5.20;;;;;;;;;;5037476;28;20037;-61
2023/06/20 06:42:22;;;;;;;7.38;5.82;;;;;;;;;;5055619;28;20461;-61
2023/06/20 06:44:48;;;;;;;8.70;5.93;;;;;;;;;;5055259;28;20083;-61
2023/06/20 06:47:13;;;;;;;6.53;5.57;;;;;;;;;;5055791;28;20036;-61
2023/06/20 06:49:38;;;;;;;6.45;5.70;;;;;;;;;;5055417;28;20045;-61
2023/06/20 06:52:04;;;;;;;8.20;7.45;;;;;;;;;;5055041;28;20029;-62
2023/06/20 06:54:29;;;;;;;8.52;7.63;;;;;;;;;;5055102;28;20528;-61
2023/06/20 06:56:55;;;;;;;7.78;6.93;;;;;;;;;;5054997;28;20041;-61
2023/06/20 06:59:20;;;;;;;7.28;6.53;;;;;;;;;;5037266;28;20358;-62
2023/06/20 07:01:46;;;;;;;6.32;5.65;;;;;;;;;;5054847;28;20045;-61
2023/06/20 07:04:11;;;;;;;7.13;5.82;;;;;;;;;;5037037;28;20044;-61
2023/06/20 07:06:37;;;;;;;6.35;5.70;;;;;;;;;;5055134;28;20040;-61
2023/06/20 07:09:02;;;;;;;7.55;6.75;;;;;;;;;;5054824;28;20378;-61
2023/06/20 07:11:28;;;;;;;8.38;6.45;;;;;;;;;;5054134;28;20045;-61
2023/06/20 07:13:53;;;;;;;7.45;6.65;;;;;;;;;;5054706;28;20044;-61
2023/06/20 07:16:18;;;;;;;7.47;6.00;;;;;;;;;;5054691;28;20076;-61
2023/06/20 07:18:43;;;;;;;7.40;5.28;;;;;;;;;;5054590;28;20182;-61
2023/06/20 07:21:09;;;;;;;6.40;5.82;;;;;;;;;;5055137;28;20052;-62
2023/06/20 07:23:34;;;;;;;7.80;6.60;;;;;;;;;;5055036;28;20479;-61
2023/06/20 07:26:00;;;;;;;6.78;5.88;;;;;;;;;;5036665;28;20132;-61
2023/06/20 07:28:26;;;;;;;6.57;5.97;;;;;;;;;;5054693;28;20044;-61
2023/06/20 07:30:52;;;;;;;6.15;5.32;;;;;;;;;;5054340;28;20063;-61
2023/06/20 07:33:17;;;;;;;4.95;4.43;;;;;;;;;;5054863;28;20033;-62
2023/06/20 07:35:42;;;;;;;8.00;5.88;;;;;;;;;;5054851;28;20438;-62
2023/06/20 07:38:08;;;;;;;8.52;5.88;;;;;;;;;;5054280;28;20037;-62
2023/06/20 07:40:33;;;;;;;10.23;6.20;;;;;;;;;;5054196;28;20388;-62
2023/06/20 07:42:59;;;;;;;9.43;6.32;;;;;;;;;;5054480;28;20040;-61
2023/06/20 07:45:24;;;;;;;8.38;5.90;;;;;;;;;;5036384;28;20037;-62
2023/06/20 07:47:49;;;;;;;5.72;5.00;;;;;;;;;;5036228;28;20032;-62
2023/06/20 07:50:14;;;;;;;5.13;4.63;;;;;;;;;;5053953;28;20514;-62
2023/06/20 07:52:41;;;;;;;5.95;4.53;;;;;;;;;;5053997;28;20055;-67
2023/06/20 07:55:06;;;;;;;4.38;3.80;;;;;;;;;;5065310;22;20381;-61
2023/06/20 07:57:32;;;;;;;4.97;4.57;;;;;;;;;;5053947;28;20044;-62
2023/06/20 07:59:57;;;;;;;5.05;4.65;;;;;;;;;;5054203;28;20033;-62
2023/06/20 08:02:22;;;;;;;6.15;5.55;;;;;;;;;;5053882;28;20055;-62
2023/06/20 08:04:48;;;;;;;5.45;5.05;;;;;;;;;;5054142;28;20040;-62
2023/06/20 08:07:13;;;;;;;6.13;5.63;;;;;;;;;;5036481;28;20041;-62
2023/06/20 08:09:38;;;;;;;5.85;5.30;;;;;;;;;;5053755;28;20033;-61
2023/06/20 08:12:04;;;;;;;6.35;5.53;;;;;;;;;;5053652;28;20032;-62
2023/06/20 08:14:30;;;;;;;11.52;10.40;;;;;;;;;;5053955;28;20464;-62
2023/06/20 08:16:55;;;;;;;6.68;6.10;;;;;;;;;;5053914;28;20041;-62
2023/06/20 08:19:20;;;;;;;5.07;4.65;;;;;;;;;;5053591;28;20119;-62
2023/06/20 08:21:46;;;;;;;5.45;5.05;;;;;;;;;;5053856;28;20099;-62
2023/06/20 08:24:11;;;;;;;6.05;5.47;;;;;;;;;;5053499;28;20041;-61
2023/06/20 08:26:36;;;;;;;7.10;5.80;;;;;;;;;;5053514;28;20048;-62
2023/06/20 08:29:02;;;;;;;5.37;4.93;;;;;;;;;;5053548;28;20033;-61
2023/06/20 08:31:36;;;;;;;9.23;5.82;;;;;;;;;;5053379;28;20283;-61
2023/06/20 08:36:50;;;;;;;5.15;4.75;;;;;;;;;;5085473;22;20726;-61
2023/06/20 08:39:18;;;;;;;6.15;5.65;;;;;;;;;;5064259;22;20052;-68
2023/06/20 08:41:43;;;;;;;6.38;5.88;;;;;;;;;;5035491;28;20405;-67
2023/06/20 08:44:08;;;;;;;6.28;5.72;;;;;;;;;;5053352;28;20029;-67
2023/06/20 08:46:34;;;;;;;5.75;5.35;;;;;;;;;;5053339;28;20116;-68
2023/06/20 08:48:59;;;;;;;5.28;4.88;;;;;;;;;;5053325;28;20043;-67
2023/06/20 08:51:26;;;;;;;5.30;4.90;;;;;;;;;;5053805;28;20029;-67
2023/06/20 08:53:53;;;;;;;7.38;6.57;;;;;;;;;;5053538;28;20140;-67
2023/06/20 08:56:19;;;;;;;5.97;4.88;;;;;;;;;;5035385;28;20124;-68
2023/06/20 08:58:44;;;;;;;6.07;5.47;;;;;;;;;;5053216;28;20100;-68
2023/06/20 09:01:10;;;;;;;6.40;5.80;;;;;;;;;;5053174;28;20408;-68
2023/06/20 09:03:36;;;;;;;5.65;5.18;;;;;;;;;;5053147;28;20045;-67
2023/06/20 09:06:01;;;;;;;5.20;4.80;;;;;;;;;;5053424;28;20029;-67
2023/06/20 09:08:46;;;;;;;5.68;5.25;;;;;;;;;;5035624;28;20091;-67
2023/06/20 09:11:11;;;;;;;5.63;5.18;;;;;;;;;;5053327;28;20087;-67
2023/06/20 09:13:37;;;;;;;6.38;5.78;;;;;;;;;;5053364;28;20060;-67
2023/06/20 09:16:09;;;;;;;5.70;5.30;;;;;;;;;;5035131;28;20120;-68
2023/06/20 09:18:35;;;;;;;6.38;5.88;;;;;;;;;;5053610;28;20037;-67
2023/06/20 09:21:01;;;;;;;6.00;5.60;;;;;;;;;;5052967;28;20159;-67
2023/06/20 09:23:27;;;;;;;6.97;6.47;;;;;;;;;;5052997;28;20048;-67
2023/06/20 09:25:53;;;;;;;5.75;5.30;;;;;;;;;;5053250;28;20060;-68
2023/06/20 09:28:18;;;;;;;5.65;5.15;;;;;;;;;;5035105;28;20076;-68
2023/06/20 09:30:47;;;;;;;6.32;5.72;;;;;;;;;;5052876;28;20040;-67
2023/06/20 09:33:13;;;;;;;5.90;5.40;;;;;;;;;;5052923;28;20112;-68
2023/06/20 09:35:38;;;;;;;6.68;6.18;;;;;;;;;;5055994;28;20108;-67
2023/06/20 09:38:05;;;;;;;5.97;5.47;;;;;;;;;;5056389;28;20037;-67
2023/06/20 09:40:41;;;;;;;6.25;5.75;;;;;;;;;;5056712;28;20102;-67
2023/06/20 09:43:06;;;;;;;7.78;6.20;;;;;;;;;;5056758;28;20033;-67
2023/06/20 09:45:31;;;;;;;7.72;5.50;;;;;;;;;;5056690;28;20022;-67
2023/06/20 09:47:57;;;;;;;7.00;6.40;;;;;;;;;;5056406;28;20068;-67
2023/06/20 09:50:23;;;;;;;7.07;6.40;;;;;;;;;;5038729;28;20032;-68
2023/06/20 09:52:54;;;;;;;6.53;6.03;;;;;;;;;;5056591;28;20037;-67
2023/06/20 09:55:20;;;;;;;7.03;6.43;;;;;;;;;;5056256;28;20055;-68
2023/06/20 09:57:49;;;;;;;6.97;6.38;;;;;;;;;;5056428;28;20091;-67
2023/06/20 10:00:16;;;;;;;7.15;6.45;;;;;;;;;;5056200;28;20040;-67
2023/06/20 10:02:45;;;;;;;6.95;6.25;;;;;;;;;;5056405;28;20044;-68
2023/06/20 10:05:15;;;;;;;5.32;4.93;;;;;;;;;;5038154;28;20112;-67
2023/06/20 10:07:41;;;;;;;6.15;5.65;;;;;;;;;;5056542;28;20037;-67
2023/06/20 10:10:07;;;;;;;6.30;5.70;;;;;;;;;;5038147;28;20033;-67
2023/06/20 10:12:32;;;;;;;6.45;5.85;;;;;;;;;;5055864;28;20063;-67
2023/06/20 10:14:59;;;;;;;6.38;5.88;;;;;;;;;;5055893;28;20068;-69
2023/06/20 10:17:31;;;;;;;6.82;6.20;;;;;;;;;;5067825;22;20671;-67
2023/06/20 10:19:57;;;;;;;6.32;5.82;;;;;;;;;;5074065;22;20083;-61
2023/06/20 10:22:58;;;;;;;8.85;6.60;;;;;;;;;;5055780;28;20068;-61
2023/06/20 10:25:25;;;;;;;6.28;5.68;;;;;;;;;;5013548;28;20079;-61
2023/06/20 10:27:58;;;;;;;6.97;5.75;;;;;;;;;;5037776;28;20033;-61
2023/06/20 10:30:42;;;;;;;5.07;4.75;;;;;;;;;;5055770;28;20041;-62
2023/06/20 10:33:08;;;;;;;7.25;6.55;;;;;;;;;;5055524;28;20040;-61
2023/06/20 10:35:33;;;;;;;6.28;5.78;;;;;;;;;;5037960;28;20040;-61
2023/06/20 10:38:08;;;;;;;6.13;5.45;;;;;;;;;;5055483;28;20119;-62
2023/06/20 10:40:34;;;;;;;6.55;5.95;;;;;;;;;;5055667;28;20138;-61
2023/06/20 10:43:04;;;;;;;8.95;6.65;;;;;;;;;;5055367;28;20512;-62
2023/06/20 10:45:31;;;;;;;7.28;6.57;;;;;;;;;;5054672;28;20388;-61
2023/06/20 10:47:58;;;;;;;7.22;6.50;;;;;;;;;;5054709;28;20041;-62
2023/06/20 10:50:23;;;;;;;6.80;6.30;;;;;;;;;;5055406;28;20030;-62
2023/06/20 10:52:49;;;;;;;8.80;7.10;;;;;;;;;;5055167;28;20036;-62
2023/06/20 10:55:16;;;;;;;6.68;5.95;;;;;;;;;;5055395;28;20469;-62
2023/06/20 10:57:49;;;;;;;7.75;6.57;;;;;;;;;;5055345;28;20033;-61
2023/06/20 11:00:17;;;;;;;7.22;6.50;;;;;;;;;;5055311;28;20041;-61
2023/06/20 11:02:43;;;;;;;8.65;5.93;;;;;;;;;;5055199;28;20045;-62
2023/06/20 11:05:09;;;;;;;6.32;5.80;;;;;;;;;;5055193;28;20044;-62
2023/06/20 11:07:35;;;;;;;6.78;6.18;;;;;;;;;;5054882;28;20112;-62
2023/06/20 11:10:11;;;;;;;10.50;5.82;;;;;;;;;;5054827;28;20098;-62
2023/06/20 11:12:41;;;;;;;8.02;7.22;;;;;;;;;;5054964;28;20049;-62
2023/06/20 11:15:22;;;;;;;6.95;6.35;;;;;;;;;;5055233;28;20044;-61
2023/06/20 11:17:48;;;;;;;7.65;6.95;;;;;;;;;;5037212;28;20037;-61
2023/06/20 11:20:13;;;;;;;7.93;7.10;;;;;;;;;;5036577;28;20051;-61
2023/06/20 11:22:39;;;;;;;7.80;6.03;;;;;;;;;;5054560;28;20056;-61
2023/06/20 11:25:06;;;;;;;8.35;5.93;;;;;;;;;;5054794;28;20064;-62
2023/06/20 11:27:31;;;;;;;7.03;6.32;;;;;;;;;;5054502;28;20051;-61
2023/06/20 11:29:56;;;;;;;6.45;5.85;;;;;;;;;;5054432;28;20040;-62
2023/06/20 11:32:21;;;;;;;7.18;5.68;;;;;;;;;;5054273;28;20048;-62
2023/06/20 11:34:53;;;;;;;6.88;5.90;;;;;;;;;;5054366;28;20175;-61
2023/06/20 11:37:18;;;;;;;6.80;6.15;;;;;;;;;;5054603;28;20041;-62
2023/06/20 11:39:43;;;;;;;8.48;6.53;;;;;;;;;;5054514;28;20032;-61
2023/06/20 11:42:18;;;;;;;7.30;6.60;;;;;;;;;;5054250;28;20041;-62
2023/06/20 11:44:44;;;;;;;8.68;5.95;;;;;;;;;;5054501;28;20048;-62
2023/06/20 11:47:10;;;;;;;8.30;6.20;;;;;;;;;;5054143;28;20033;-61
2023/06/20 11:49:39;;;;;;;6.40;5.75;;;;;;;;;;5054138;28;20473;-61
2023/06/20 11:52:07;;;;;;;6.80;6.13;;;;;;;;;;5036110;28;20044;-68
2023/06/20 11:54:46;;;;;;;8.90;7.55;;;;;;;;;;5036646;28;20373;-68
2023/06/20 11:57:20;;;;;;;7.72;6.43;;;;;;;;;;5053571;28;20112;-68
2023/06/20 11:59:45;;;;;;;7.57;6.30;;;;;;;;;;5054200;28;20041;-68
2023/06/20 12:02:14;;;;;;;8.93;8.02;;;;;;;;;;5052742;28;20472;-68
2023/06/20 12:04:43;;;;;;;11.73;8.73;;;;;;;;;;5053859;28;20476;-68
2023/06/20 12:07:08;;;;;;;7.68;6.90;;;;;;;;;;5054094;28;20052;-68
2023/06/20 12:09:44;;;;;;;8.30;7.13;;;;;;;;;;5053763;28;20024;-67
2023/06/20 12:12:09;;;;;;;8.30;6.88;;;;;;;;;;5053920;28;20040;-68
2023/06/20 12:14:37;;;;;;;10.48;8.63;;;;;;;;;;5053728;28;20365;-68
2023/06/20 12:17:03;;;;;;;12.85;8.90;;;;;;;;;;5053958;28;20029;-67
2023/06/20 12:19:28;;;;;;;9.98;8.00;;;;;;;;;;5053448;28;20614;-68
2023/06/20 12:21:53;;;;;;;7.40;6.80;;;;;;;;;;5036072;28;20052;-67
2023/06/20 12:24:20;;;;;;;6.20;5.70;;;;;;;;;;5036337;28;20045;-68
2023/06/20 12:26:51;;;;;;;7.63;6.78;;;;;;;;;;5053553;28;20123;-68
2023/06/20 12:29:16;;;;;;;;;;;;;;;;;;5053983;28;20045;-67
2023/06/20 12:31:41;;;;;;;7.57;6.93;;;;;;;;;;5053933;28;19913;-67
2023/06/20 12:34:07;;;;;;;7.28;6.57;;;;;;;;;;5035720;28;20037;-67
2023/06/20 12:36:33;;;;;;;6.75;6.22;;;;;;;;;;5053434;28;20435;-67
2023/06/20 12:39:00;;;;;;;6.20;5.80;;;;;;;;;;5053368;28;20037;-68
2023/06/20 12:41:32;;;;;;;7.70;6.72;;;;;;;;;;5053421;28;20048;-62
2023/06/20 12:43:58;;;;;;;6.88;6.20;;;;;;;;;;5045711;23;20057;-61
2023/06/20 12:46:23;;;;;;;7.30;6.60;;;;;;;;;;5045374;28;20095;-61
2023/06/20 12:48:49;;;;;;;6.32;5.93;;;;;;;;;;5053588;28;20119;-61
2023/06/20 12:51:14;;;;;;;6.97;6.47;;;;;;;;;;5035509;28;20102;-61
2023/06/20 12:53:39;;;;;;;6.38;5.88;;;;;;;;;;5053297;28;20041;-61
2023/06/20 12:56:05;;;;;;;8.85;6.82;;;;;;;;;;5053817;28;20044;-61
2023/06/20 12:58:34;;;;;;;11.07;6.93;;;;;;;;;;5053255;28;20022;-61
2023/06/20 13:00:59;;;;;;;16.10;7.45;;;;;;;;;;5053533;28;20041;-61
2023/06/20 13:03:26;;;;;;;7.50;6.90;;;;;;;;;;5035244;28;20036;-62
2023/06/20 13:05:52;;;;;;;7.57;6.88;;;;;;;;;;5053175;28;20477;-61
2023/06/20 13:08:18;;;;;;;9.50;6.97;;;;;;;;;;5035952;28;20045;-62
2023/06/20 13:10:44;;;;;;;7.82;7.15;;;;;;;;;;5055921;28;20091;-62
2023/06/20 13:13:10;;;;;;;8.00;7.30;;;;;;;;;;5039172;28;20033;-61
2023/06/20 13:15:35;;;;;;;8.48;7.30;;;;;;;;;;5056986;28;20087;-62
2023/06/20 13:18:03;;;;;;;7.80;7.03;;;;;;;;;;5057246;28;20036;-62
2023/06/20 13:20:29;;;;;;;7.32;6.68;;;;;;;;;;5039406;28;20037;-61
2023/06/20 13:22:55;;;;;;;7.05;6.55;;;;;;;;;;5057417;28;20033;-62
2023/06/20 13:25:20;;;;;;;7.57;6.88;;;;;;;;;;5039111;28;20112;-62
2023/06/20 13:27:47;;;;;;;8.35;7.00;;;;;;;;;;5056749;28;20068;-62
2023/06/20 13:30:15;;;;;;;8.07;6.82;;;;;;;;;;5056946;28;20065;-62
2023/06/20 13:32:41;;;;;;;7.55;6.95;;;;;;;;;;5057163;28;20044;-61
2023/06/20 13:35:08;;;;;;;9.10;6.97;;;;;;;;;;5056595;28;20488;-62
2023/06/20 13:37:33;;;;;;;7.07;6.57;;;;;;;;;;5056869;28;20542;-62
2023/06/20 13:39:59;;;;;;;7.75;6.97;;;;;;;;;;5038896;28;20068;-62
2023/06/20 13:42:24;;;;;;;7.13;6.40;;;;;;;;;;5056459;28;20042;-62
2023/06/20 13:44:49;;;;;;;7.35;6.57;;;;;;;;;;5056598;28;20123;-62
2023/06/20 13:47:14;;;;;;;7.28;6.68;;;;;;;;;;5038590;28;20059;-68
2023/06/20 13:49:40;;;;;;;7.30;6.70;;;;;;;;;;5038507;28;20037;-68
2023/06/20 13:52:05;;;;;;;7.40;6.68;;;;;;;;;;5056233;28;20037;-68
2023/06/20 13:54:31;;;;;;;7.60;6.72;;;;;;;;;;5038406;28;20484;-67
2023/06/20 13:56:56;;;;;;;7.22;6.63;;;;;;;;;;5038681;28;20064;-68
2023/06/20 13:59:24;;;;;;;6.90;6.32;;;;;;;;;;5038680;28;20033;-67
2023/06/20 14:01:50;;;;;;;7.65;6.95;;;;;;;;;;5038268;28;20032;-67
2023/06/20 14:04:15;;;;;;;7.72;6.97;;;;;;;;;;5056101;28;20044;-67
2023/06/20 14:06:40;;;;;;;7.22;6.55;;;;;;;;;;5056348;28;20033;-67
2023/06/20 14:09:06;;;;;;;8.95;8.07;;;;;;;;;;5055988;28;20098;-67
2023/06/20 14:11:32;;;;;;;9.98;9.00;;;;;;;;;;5056169;28;20048;-68
2023/06/20 14:13:57;;;;;;;8.20;7.45;;;;;;;;;;5055879;28;20037;-68
2023/06/20 14:16:23;;;;;;;6.57;6.07;;;;;;;;;;5056165;28;20037;-68
2023/06/20 14:18:50;;;;;;;7.30;6.70;;;;;;;;;;5055760;28;20397;-68
2023/06/20 14:21:15;;;;;;;8.77;6.65;;;;;;;;;;5055484;28;20033;-68
2023/06/20 14:23:40;;;;;;;8.40;6.50;;;;;;;;;;5055732;28;20473;-68
2023/06/20 14:26:06;;;;;;;8.60;6.70;;;;;;;;;;5055930;28;20044;-68
2023/06/20 14:28:31;;;;;;;7.47;6.78;;;;;;;;;;5055434;28;20029;-68
2023/06/20 14:30:56;;;;;;;7.47;6.47;;;;;;;;;;5046010;28;20474;-68
2023/06/20 14:33:24;;;;;;;6.88;6.25;;;;;;;;;;5050886;28;20076;-68
2023/06/20 14:35:49;;;;;;;7.53;6.82;;;;;;;;;;5055647;28;20488;-68
2023/06/20 14:38:15;;;;;;;7.15;6.47;;;;;;;;;;5055635;28;20104;-68
2023/06/20 14:40:40;;;;;;;7.57;6.32;;;;;;;;;;5054922;28;20060;-68
2023/06/20 14:43:05;;;;;;;7.75;6.20;;;;;;;;;;5055167;28;20033;-61